sensor_id;sensor_type;location;lat;lon;timestamp;P1;durP1;ratioP1;P2;durP2;ratioP2
23432;SDS011;41331;45.412;10.992;2023-01-31T00:01:48;57.67;;;31.88;;
23432;SDS011;41331;45.412;10.992;2023-01-31T00:04:16;63.13;;;32.38;;
23432;SDS011;41331;45.412;10.992;2023-01-31T00:06:43;62.33;;;31.48;;
23432;SDS011;41331;45.412;10.992;2023-01-31T00:09:17;65.53;;;32.85;;
23432;SDS011;41331;45.412;10.992;2023-01-31T00:11:45;64.50;;;32.13;;
23432;SDS011;41331;45.412;10.992;2023-01-31T00:14:14;60.13;;;31.35;;
23432;SDS011;41331;45.412;10.992;2023-01-31T00:16:45;63.90;;;32.97;;
23432;SDS011;41331;45.412;10.992;2023-01-31T00:19:12;63.58;;;32.20;;
23432;SDS011;41331;45.412;10.992;2023-01-31T00:21:40;54.58;;;30.20;;
23432;SDS011;41331;45.412;10.992;2023-01-31T00:24:11;65.25;;;31.65;;
23432;SDS011;41331;45.412;10.992;2023-01-31T00:26:39;62.45;;;31.73;;
23432;SDS011;41331;45.412;10.992;2023-01-31T00:29:08;61.65;;;33.00;;
23432;SDS011;41331;45.412;10.992;2023-01-31T00:31:37;60.90;;;32.25;;
23432;SDS011;41331;45.412;10.992;2023-01-31T00:34:05;63.25;;;33.00;;
23432;SDS011;41331;45.412;10.992;2023-01-31T00:36:33;65.25;;;34.45;;
23432;SDS011;41331;45.412;10.992;2023-01-31T00:39:03;65.60;;;34.33;;
23432;SDS011;41331;45.412;10.992;2023-01-31T00:41:32;57.92;;;32.47;;
23432;SDS011;41331;45.412;10.992;2023-01-31T00:44:04;61.17;;;34.25;;
23432;SDS011;41331;45.412;10.992;2023-01-31T00:46:32;59.72;;;33.35;;
23432;SDS011;41331;45.412;10.992;2023-01-31T00:49:00;72.35;;;34.80;;
23432;SDS011;41331;45.412;10.992;2023-01-31T00:51:28;62.17;;;34.17;;
23432;SDS011;41331;45.412;10.992;2023-01-31T00:53:55;66.40;;;34.72;;
23432;SDS011;41331;45.412;10.992;2023-01-31T00:56:23;66.68;;;34.65;;
23432;SDS011;41331;45.412;10.992;2023-01-31T00:58:52;69.88;;;36.30;;
23432;SDS011;41331;45.412;10.992;2023-01-31T01:01:26;68.07;;;37.25;;
23432;SDS011;41331;45.412;10.992;2023-01-31T01:03:56;70.50;;;37.53;;
23432;SDS011;41331;45.412;10.992;2023-01-31T01:06:24;75.32;;;36.40;;
23432;SDS011;41331;45.412;10.992;2023-01-31T01:08:52;71.28;;;35.72;;
23432;SDS011;41331;45.412;10.992;2023-01-31T01:11:21;69.90;;;37.25;;
23432;SDS011;41331;45.412;10.992;2023-01-31T01:13:51;65.82;;;35.78;;
23432;SDS011;41331;45.412;10.992;2023-01-31T01:16:25;73.63;;;38.28;;
23432;SDS011;41331;45.412;10.992;2023-01-31T01:18:57;70.50;;;37.38;;
23432;SDS011;41331;45.412;10.992;2023-01-31T01:21:26;70.35;;;36.60;;
23432;SDS011;41331;45.412;10.992;2023-01-31T01:23:55;69.75;;;37.47;;
23432;SDS011;41331;45.412;10.992;2023-01-31T01:26:25;66.35;;;36.33;;
23432;SDS011;41331;45.412;10.992;2023-01-31T01:28:55;64.40;;;36.17;;
23432;SDS011;41331;45.412;10.992;2023-01-31T01:31:23;74.15;;;37.97;;
23432;SDS011;41331;45.412;10.992;2023-01-31T01:34:07;69.57;;;37.05;;
23432;SDS011;41331;45.412;10.992;2023-01-31T01:36:38;67.57;;;38.08;;
23432;SDS011;41331;45.412;10.992;2023-01-31T01:39:08;70.45;;;38.33;;
23432;SDS011;41331;45.412;10.992;2023-01-31T01:41:37;74.10;;;37.38;;
23432;SDS011;41331;45.412;10.992;2023-01-31T01:47:54;72.28;;;37.17;;
23432;SDS011;41331;45.412;10.992;2023-01-31T01:50:12;69.60;;;37.20;;
23432;SDS011;41331;45.412;10.992;2023-01-31T01:53:09;67.75;;;37.25;;
23432;SDS011;41331;45.412;10.992;2023-01-31T01:55:39;70.07;;;37.03;;
23432;SDS011;41331;45.412;10.992;2023-01-31T01:58:12;71.07;;;36.17;;
23432;SDS011;41331;45.412;10.992;2023-01-31T02:00:44;70.93;;;37.80;;
23432;SDS011;41331;45.412;10.992;2023-01-31T02:03:13;72.13;;;37.00;;
23432;SDS011;41331;45.412;10.992;2023-01-31T02:05:45;69.30;;;36.78;;
23432;SDS011;41331;45.412;10.992;2023-01-31T02:08:16;74.68;;;37.92;;
23432;SDS011;41331;45.412;10.992;2023-01-31T02:10:47;71.28;;;36.15;;
23432;SDS011;41331;45.412;10.992;2023-01-31T02:13:19;71.25;;;37.10;;
23432;SDS011;41331;45.412;10.992;2023-01-31T02:15:47;68.05;;;36.88;;
23432;SDS011;41331;45.412;10.992;2023-01-31T02:18:16;68.18;;;38.17;;
23432;SDS011;41331;45.412;10.992;2023-01-31T02:34:44;60.35;;;35.45;;
23432;SDS011;41331;45.412;10.992;2023-01-31T02:40:35;65.07;;;34.28;;
23432;SDS011;41331;45.412;10.992;2023-01-31T02:46:24;61.58;;;33.88;;
23432;SDS011;41331;45.412;10.992;2023-01-31T02:49:20;62.60;;;33.10;;
23432;SDS011;41331;45.412;10.992;2023-01-31T02:54:52;64.03;;;31.23;;
23432;SDS011;41331;45.412;10.992;2023-01-31T02:57:45;61.63;;;33.20;;
23432;SDS011;41331;45.412;10.992;2023-01-31T03:00:17;64.80;;;34.00;;
23432;SDS011;41331;45.412;10.992;2023-01-31T03:02:45;62.15;;;33.60;;
23432;SDS011;41331;45.412;10.992;2023-01-31T03:05:14;65.47;;;33.50;;
23432;SDS011;41331;45.412;10.992;2023-01-31T03:07:46;59.45;;;33.50;;
23432;SDS011;41331;45.412;10.992;2023-01-31T03:13:10;62.58;;;33.13;;
23432;SDS011;41331;45.412;10.992;2023-01-31T03:19:20;60.03;;;31.65;;
23432;SDS011;41331;45.412;10.992;2023-01-31T03:21:59;60.97;;;32.50;;
23432;SDS011;41331;45.412;10.992;2023-01-31T03:24:31;61.38;;;33.45;;
23432;SDS011;41331;45.412;10.992;2023-01-31T03:27:00;54.88;;;30.83;;
23432;SDS011;41331;45.412;10.992;2023-01-31T03:29:30;58.47;;;30.58;;
23432;SDS011;41331;45.412;10.992;2023-01-31T03:32:08;60.65;;;31.73;;
23432;SDS011;41331;45.412;10.992;2023-01-31T03:34:43;58.78;;;30.90;;
23432;SDS011;41331;45.412;10.992;2023-01-31T03:37:16;53.20;;;29.55;;
23432;SDS011;41331;45.412;10.992;2023-01-31T03:40:18;50.90;;;29.33;;
23432;SDS011;41331;45.412;10.992;2023-01-31T03:42:54;58.63;;;30.98;;
23432;SDS011;41331;45.412;10.992;2023-01-31T03:45:33;61.05;;;30.85;;
23432;SDS011;41331;45.412;10.992;2023-01-31T03:48:15;58.33;;;29.75;;
23432;SDS011;41331;45.412;10.992;2023-01-31T03:50:52;58.90;;;30.85;;
23432;SDS011;41331;45.412;10.992;2023-01-31T03:56:06;53.90;;;29.85;;
23432;SDS011;41331;45.412;10.992;2023-01-31T03:58:41;59.92;;;29.35;;
23432;SDS011;41331;45.412;10.992;2023-01-31T04:01:14;52.63;;;29.10;;
23432;SDS011;41331;45.412;10.992;2023-01-31T04:03:54;61.38;;;30.20;;
23432;SDS011;41331;45.412;10.992;2023-01-31T04:06:25;57.50;;;29.50;;
23432;SDS011;41331;45.412;10.992;2023-01-31T04:08:54;60.83;;;30.35;;
23432;SDS011;41331;45.412;10.992;2023-01-31T04:11:23;61.05;;;31.58;;
23432;SDS011;41331;45.412;10.992;2023-01-31T04:13:52;60.25;;;30.65;;
23432;SDS011;41331;45.412;10.992;2023-01-31T04:16:20;57.42;;;30.63;;
23432;SDS011;41331;45.412;10.992;2023-01-31T04:18:47;55.22;;;30.13;;
23432;SDS011;41331;45.412;10.992;2023-01-31T04:21:15;54.60;;;29.88;;
23432;SDS011;41331;45.412;10.992;2023-01-31T04:23:42;56.78;;;30.50;;
23432;SDS011;41331;45.412;10.992;2023-01-31T04:26:10;53.88;;;29.92;;
23432;SDS011;41331;45.412;10.992;2023-01-31T04:28:37;61.50;;;29.60;;
23432;SDS011;41331;45.412;10.992;2023-01-31T04:31:06;55.28;;;30.17;;
23432;SDS011;41331;45.412;10.992;2023-01-31T04:33:33;58.30;;;30.55;;
23432;SDS011;41331;45.412;10.992;2023-01-31T04:36:01;53.13;;;29.00;;
23432;SDS011;41331;45.412;10.992;2023-01-31T04:38:29;56.40;;;29.17;;
23432;SDS011;41331;45.412;10.992;2023-01-31T04:40:56;55.63;;;29.48;;
23432;SDS011;41331;45.412;10.992;2023-01-31T04:43:24;52.58;;;29.73;;
23432;SDS011;41331;45.412;10.992;2023-01-31T04:45:51;63.05;;;29.60;;
23432;SDS011;41331;45.412;10.992;2023-01-31T04:48:19;56.50;;;29.05;;
23432;SDS011;41331;45.412;10.992;2023-01-31T04:50:46;52.85;;;29.92;;
23432;SDS011;41331;45.412;10.992;2023-01-31T04:53:14;53.75;;;29.58;;
23432;SDS011;41331;45.412;10.992;2023-01-31T04:55:41;54.88;;;29.38;;
23432;SDS011;41331;45.412;10.992;2023-01-31T04:58:09;52.25;;;28.33;;
23432;SDS011;41331;45.412;10.992;2023-01-31T05:00:36;52.58;;;28.45;;
23432;SDS011;41331;45.412;10.992;2023-01-31T05:03:04;50.60;;;29.08;;
23432;SDS011;41331;45.412;10.992;2023-01-31T05:05:32;49.70;;;26.33;;
23432;SDS011;41331;45.412;10.992;2023-01-31T05:08:02;52.78;;;27.95;;
23432;SDS011;41331;45.412;10.992;2023-01-31T05:10:30;50.65;;;26.58;;
23432;SDS011;41331;45.412;10.992;2023-01-31T05:12:58;59.92;;;28.50;;
23432;SDS011;41331;45.412;10.992;2023-01-31T05:15:26;51.22;;;25.95;;
23432;SDS011;41331;45.412;10.992;2023-01-31T05:17:53;51.72;;;26.65;;
23432;SDS011;41331;45.412;10.992;2023-01-31T05:20:30;50.17;;;25.85;;
23432;SDS011;41331;45.412;10.992;2023-01-31T05:23:02;50.47;;;26.73;;
23432;SDS011;41331;45.412;10.992;2023-01-31T05:25:30;47.15;;;26.95;;
23432;SDS011;41331;45.412;10.992;2023-01-31T05:27:57;57.40;;;26.95;;
23432;SDS011;41331;45.412;10.992;2023-01-31T05:30:25;46.55;;;24.92;;
23432;SDS011;41331;45.412;10.992;2023-01-31T05:32:53;51.38;;;25.58;;
23432;SDS011;41331;45.412;10.992;2023-01-31T05:35:21;45.83;;;24.58;;
23432;SDS011;41331;45.412;10.992;2023-01-31T05:37:49;41.90;;;23.98;;
23432;SDS011;41331;45.412;10.992;2023-01-31T05:40:19;42.17;;;22.85;;
23432;SDS011;41331;45.412;10.992;2023-01-31T05:42:54;39.55;;;23.38;;
23432;SDS011;41331;45.412;10.992;2023-01-31T05:45:23;42.08;;;22.67;;
23432;SDS011;41331;45.412;10.992;2023-01-31T05:47:51;45.17;;;23.38;;
23432;SDS011;41331;45.412;10.992;2023-01-31T05:50:19;40.95;;;22.27;;
23432;SDS011;41331;45.412;10.992;2023-01-31T05:52:51;43.78;;;21.48;;
23432;SDS011;41331;45.412;10.992;2023-01-31T05:55:20;43.45;;;21.33;;
23432;SDS011;41331;45.412;10.992;2023-01-31T05:57:49;41.88;;;21.20;;
23432;SDS011;41331;45.412;10.992;2023-01-31T06:00:18;41.92;;;20.95;;
23432;SDS011;41331;45.412;10.992;2023-01-31T06:02:46;40.42;;;20.92;;
23432;SDS011;41331;45.412;10.992;2023-01-31T06:05:14;41.97;;;21.05;;
23432;SDS011;41331;45.412;10.992;2023-01-31T06:07:42;45.75;;;22.17;;
23432;SDS011;41331;45.412;10.992;2023-01-31T06:10:10;38.60;;;21.83;;
23432;SDS011;41331;45.412;10.992;2023-01-31T06:12:38;40.53;;;22.23;;
23432;SDS011;41331;45.412;10.992;2023-01-31T06:15:06;45.67;;;22.15;;
23432;SDS011;41331;45.412;10.992;2023-01-31T06:17:34;41.55;;;22.38;;
23432;SDS011;41331;45.412;10.992;2023-01-31T06:20:03;48.33;;;24.20;;
23432;SDS011;41331;45.412;10.992;2023-01-31T06:22:31;43.42;;;23.10;;
23432;SDS011;41331;45.412;10.992;2023-01-31T06:24:58;41.38;;;22.80;;
23432;SDS011;41331;45.412;10.992;2023-01-31T06:27:26;43.25;;;22.50;;
23432;SDS011;41331;45.412;10.992;2023-01-31T06:29:54;40.30;;;22.55;;
23432;SDS011;41331;45.412;10.992;2023-01-31T06:32:21;38.20;;;21.58;;
23432;SDS011;41331;45.412;10.992;2023-01-31T06:34:49;41.15;;;21.08;;
23432;SDS011;41331;45.412;10.992;2023-01-31T06:37:16;38.67;;;23.15;;
23432;SDS011;41331;45.412;10.992;2023-01-31T06:39:44;46.35;;;22.35;;
23432;SDS011;41331;45.412;10.992;2023-01-31T06:42:11;42.63;;;22.25;;
23432;SDS011;41331;45.412;10.992;2023-01-31T06:44:39;43.58;;;21.58;;
23432;SDS011;41331;45.412;10.992;2023-01-31T06:47:06;35.80;;;20.83;;
23432;SDS011;41331;45.412;10.992;2023-01-31T06:49:34;43.50;;;22.25;;
23432;SDS011;41331;45.412;10.992;2023-01-31T06:52:02;50.45;;;21.92;;
23432;SDS011;41331;45.412;10.992;2023-01-31T06:54:29;45.97;;;23.13;;
23432;SDS011;41331;45.412;10.992;2023-01-31T06:56:57;44.00;;;22.15;;
23432;SDS011;41331;45.412;10.992;2023-01-31T06:59:25;41.22;;;22.60;;
23432;SDS011;41331;45.412;10.992;2023-01-31T07:01:52;42.47;;;21.98;;
23432;SDS011;41331;45.412;10.992;2023-01-31T07:04:20;39.28;;;21.20;;
23432;SDS011;41331;45.412;10.992;2023-01-31T07:06:48;39.58;;;21.83;;
23432;SDS011;41331;45.412;10.992;2023-01-31T07:09:15;43.22;;;21.90;;
23432;SDS011;41331;45.412;10.992;2023-01-31T07:11:44;42.55;;;21.85;;
23432;SDS011;41331;45.412;10.992;2023-01-31T07:14:11;42.95;;;22.05;;
23432;SDS011;41331;45.412;10.992;2023-01-31T07:16:39;38.80;;;21.98;;
23432;SDS011;41331;45.412;10.992;2023-01-31T07:19:06;46.75;;;23.85;;
23432;SDS011;41331;45.412;10.992;2023-01-31T07:21:34;40.38;;;22.73;;
23432;SDS011;41331;45.412;10.992;2023-01-31T07:24:03;48.80;;;24.98;;
23432;SDS011;41331;45.412;10.992;2023-01-31T07:26:30;42.72;;;23.40;;
23432;SDS011;41331;45.412;10.992;2023-01-31T07:28:58;38.78;;;22.58;;
23432;SDS011;41331;45.412;10.992;2023-01-31T07:31:26;42.28;;;23.58;;
23432;SDS011;41331;45.412;10.992;2023-01-31T07:33:53;46.13;;;22.70;;
23432;SDS011;41331;45.412;10.992;2023-01-31T07:36:21;40.60;;;22.67;;
23432;SDS011;41331;45.412;10.992;2023-01-31T07:38:53;41.05;;;23.65;;
23432;SDS011;41331;45.412;10.992;2023-01-31T07:41:22;41.22;;;22.33;;
23432;SDS011;41331;45.412;10.992;2023-01-31T07:43:51;40.92;;;22.98;;
23432;SDS011;41331;45.412;10.992;2023-01-31T07:46:19;38.63;;;22.70;;
23432;SDS011;41331;45.412;10.992;2023-01-31T07:48:46;44.53;;;23.35;;
23432;SDS011;41331;45.412;10.992;2023-01-31T07:51:14;44.08;;;23.65;;
23432;SDS011;41331;45.412;10.992;2023-01-31T07:53:41;46.08;;;24.13;;
23432;SDS011;41331;45.412;10.992;2023-01-31T07:56:13;46.70;;;27.38;;
23432;SDS011;41331;45.412;10.992;2023-01-31T07:58:44;54.00;;;27.83;;
23432;SDS011;41331;45.412;10.992;2023-01-31T08:01:31;58.80;;;29.20;;
23432;SDS011;41331;45.412;10.992;2023-01-31T08:04:36;49.75;;;28.90;;
23432;SDS011;41331;45.412;10.992;2023-01-31T08:07:03;45.10;;;24.92;;
23432;SDS011;41331;45.412;10.992;2023-01-31T08:09:33;40.97;;;25.17;;
23432;SDS011;41331;45.412;10.992;2023-01-31T08:12:00;46.75;;;23.58;;
23432;SDS011;41331;45.412;10.992;2023-01-31T08:14:28;33.05;;;19.60;;
23432;SDS011;41331;45.412;10.992;2023-01-31T08:16:55;29.10;;;17.83;;
23432;SDS011;41331;45.412;10.992;2023-01-31T08:19:23;29.83;;;16.80;;
23432;SDS011;41331;45.412;10.992;2023-01-31T08:21:50;29.10;;;16.85;;
23432;SDS011;41331;45.412;10.992;2023-01-31T08:24:18;26.42;;;15.68;;
23432;SDS011;41331;45.412;10.992;2023-01-31T08:26:46;29.92;;;15.95;;
23432;SDS011;41331;45.412;10.992;2023-01-31T08:29:13;25.38;;;15.90;;
23432;SDS011;41331;45.412;10.992;2023-01-31T08:31:41;29.00;;;14.98;;
23432;SDS011;41331;45.412;10.992;2023-01-31T08:34:10;31.48;;;16.55;;
23432;SDS011;41331;45.412;10.992;2023-01-31T08:36:38;35.30;;;18.75;;
23432;SDS011;41331;45.412;10.992;2023-01-31T08:39:05;40.45;;;21.30;;
23432;SDS011;41331;45.412;10.992;2023-01-31T08:41:33;43.28;;;23.85;;
23432;SDS011;41331;45.412;10.992;2023-01-31T08:44:03;41.17;;;23.52;;
23432;SDS011;41331;45.412;10.992;2023-01-31T08:46:32;43.28;;;23.25;;
23432;SDS011;41331;45.412;10.992;2023-01-31T08:49:02;44.05;;;22.13;;
23432;SDS011;41331;45.412;10.992;2023-01-31T08:51:32;46.90;;;23.08;;
23432;SDS011;41331;45.412;10.992;2023-01-31T08:54:00;38.65;;;22.65;;
23432;SDS011;41331;45.412;10.992;2023-01-31T08:56:28;46.22;;;24.67;;
23432;SDS011;41331;45.412;10.992;2023-01-31T08:58:56;45.47;;;26.15;;
23432;SDS011;41331;45.412;10.992;2023-01-31T09:01:24;48.00;;;27.13;;
23432;SDS011;41331;45.412;10.992;2023-01-31T09:03:52;56.53;;;28.88;;
23432;SDS011;41331;45.412;10.992;2023-01-31T09:06:23;46.47;;;27.95;;
23432;SDS011;41331;45.412;10.992;2023-01-31T09:08:56;49.13;;;28.38;;
23432;SDS011;41331;45.412;10.992;2023-01-31T09:11:28;43.35;;;25.20;;
23432;SDS011;41331;45.412;10.992;2023-01-31T09:16:24;42.97;;;25.35;;
23432;SDS011;41331;45.412;10.992;2023-01-31T09:18:52;47.17;;;28.27;;
23432;SDS011;41331;45.412;10.992;2023-01-31T09:21:20;45.80;;;26.95;;
23432;SDS011;41331;45.412;10.992;2023-01-31T09:23:53;42.13;;;27.67;;
23432;SDS011;41331;45.412;10.992;2023-01-31T09:26:23;43.15;;;28.48;;
23432;SDS011;41331;45.412;10.992;2023-01-31T09:28:50;47.20;;;31.83;;
23432;SDS011;41331;45.412;10.992;2023-01-31T09:31:19;61.90;;;33.88;;
23432;SDS011;41331;45.412;10.992;2023-01-31T09:33:47;54.33;;;34.28;;
23432;SDS011;41331;45.412;10.992;2023-01-31T09:36:18;53.85;;;34.75;;
23432;SDS011;41331;45.412;10.992;2023-01-31T09:38:47;55.92;;;35.05;;
23432;SDS011;41331;45.412;10.992;2023-01-31T09:43:51;47.38;;;32.17;;
23432;SDS011;41331;45.412;10.992;2023-01-31T09:46:24;50.97;;;32.58;;
23432;SDS011;41331;45.412;10.992;2023-01-31T09:48:58;49.42;;;33.60;;
23432;SDS011;41331;45.412;10.992;2023-01-31T09:51:36;50.10;;;34.60;;
23432;SDS011;41331;45.412;10.992;2023-01-31T09:54:06;47.80;;;33.38;;
23432;SDS011;41331;45.412;10.992;2023-01-31T09:57:48;44.75;;;32.47;;
23432;SDS011;41331;45.412;10.992;2023-01-31T10:08:32;45.47;;;32.78;;
23432;SDS011;41331;45.412;10.992;2023-01-31T10:11:15;49.30;;;31.50;;
23432;SDS011;41331;45.412;10.992;2023-01-31T10:13:53;49.35;;;31.50;;
23432;SDS011;41331;45.412;10.992;2023-01-31T10:24:57;38.78;;;26.73;;
23432;SDS011;41331;45.412;10.992;2023-01-31T10:27:44;46.15;;;27.50;;
23432;SDS011;41331;45.412;10.992;2023-01-31T10:30:20;44.75;;;27.85;;
23432;SDS011;41331;45.412;10.992;2023-01-31T10:32:58;45.53;;;29.15;;
23432;SDS011;41331;45.412;10.992;2023-01-31T10:35:38;41.78;;;28.13;;
23432;SDS011;41331;45.412;10.992;2023-01-31T10:38:16;50.85;;;29.95;;
23432;SDS011;41331;45.412;10.992;2023-01-31T10:40:50;41.40;;;28.65;;
23432;SDS011;41331;45.412;10.992;2023-01-31T10:43:28;50.58;;;29.98;;
23432;SDS011;41331;45.412;10.992;2023-01-31T10:46:10;44.55;;;30.02;;
23432;SDS011;41331;45.412;10.992;2023-01-31T10:48:38;46.08;;;29.55;;
23432;SDS011;41331;45.412;10.992;2023-01-31T10:56:58;43.63;;;28.10;;
23432;SDS011;41331;45.412;10.992;2023-01-31T10:59:30;45.42;;;25.23;;
23432;SDS011;41331;45.412;10.992;2023-01-31T11:02:01;43.13;;;25.65;;
23432;SDS011;41331;45.412;10.992;2023-01-31T11:07:09;44.15;;;25.38;;
23432;SDS011;41331;45.412;10.992;2023-01-31T11:09:38;48.30;;;26.42;;
23432;SDS011;41331;45.412;10.992;2023-01-31T11:12:09;47.58;;;27.40;;
23432;SDS011;41331;45.412;10.992;2023-01-31T11:14:37;42.67;;;27.95;;
23432;SDS011;41331;45.412;10.992;2023-01-31T11:17:13;43.47;;;28.95;;
23432;SDS011;41331;45.412;10.992;2023-01-31T11:19:51;44.15;;;29.15;;
23432;SDS011;41331;45.412;10.992;2023-01-31T11:22:25;43.65;;;27.83;;
23432;SDS011;41331;45.412;10.992;2023-01-31T11:24:56;48.08;;;30.23;;
23432;SDS011;41331;45.412;10.992;2023-01-31T11:27:28;47.42;;;30.80;;
23432;SDS011;41331;45.412;10.992;2023-01-31T11:29:57;50.88;;;32.13;;
23432;SDS011;41331;45.412;10.992;2023-01-31T11:32:27;52.35;;;31.63;;
23432;SDS011;41331;45.412;10.992;2023-01-31T11:34:59;54.53;;;30.77;;
23432;SDS011;41331;45.412;10.992;2023-01-31T11:37:26;53.55;;;32.20;;
23432;SDS011;41331;45.412;10.992;2023-01-31T11:39:59;57.63;;;31.47;;
23432;SDS011;41331;45.412;10.992;2023-01-31T11:42:28;50.53;;;31.88;;
23432;SDS011;41331;45.412;10.992;2023-01-31T11:45:00;51.05;;;31.30;;
23432;SDS011;41331;45.412;10.992;2023-01-31T11:47:36;49.65;;;31.27;;
23432;SDS011;41331;45.412;10.992;2023-01-31T11:50:21;51.60;;;32.47;;
23432;SDS011;41331;45.412;10.992;2023-01-31T11:53:01;52.65;;;31.90;;
23432;SDS011;41331;45.412;10.992;2023-01-31T11:55:37;53.50;;;30.05;;
23432;SDS011;41331;45.412;10.992;2023-01-31T11:58:09;49.60;;;29.15;;
23432;SDS011;41331;45.412;10.992;2023-01-31T12:00:52;44.33;;;28.67;;
23432;SDS011;41331;45.412;10.992;2023-01-31T12:03:23;47.15;;;28.67;;
23432;SDS011;41331;45.412;10.992;2023-01-31T12:05:59;50.13;;;31.27;;
23432;SDS011;41331;45.412;10.992;2023-01-31T12:08:39;47.17;;;29.48;;
23432;SDS011;41331;45.412;10.992;2023-01-31T12:13:48;53.00;;;33.55;;
23432;SDS011;41331;45.412;10.992;2023-01-31T12:16:21;56.22;;;33.75;;
23432;SDS011;41331;45.412;10.992;2023-01-31T12:41:22;42.78;;;25.77;;
23432;SDS011;41331;45.412;10.992;2023-01-31T12:48:12;42.05;;;24.00;;
23432;SDS011;41331;45.412;10.992;2023-01-31T12:55:48;36.78;;;23.80;;
23432;SDS011;41331;45.412;10.992;2023-01-31T13:01:45;37.47;;;22.50;;
23432;SDS011;41331;45.412;10.992;2023-01-31T13:06:51;39.80;;;22.98;;
23432;SDS011;41331;45.412;10.992;2023-01-31T13:09:27;37.97;;;22.00;;
23432;SDS011;41331;45.412;10.992;2023-01-31T13:14:44;44.70;;;22.65;;
23432;SDS011;41331;45.412;10.992;2023-01-31T13:17:17;35.30;;;22.13;;
23432;SDS011;41331;45.412;10.992;2023-01-31T13:19:56;39.45;;;22.73;;
23432;SDS011;41331;45.412;10.992;2023-01-31T13:25:36;32.05;;;19.52;;
23432;SDS011;41331;45.412;10.992;2023-01-31T13:31:20;36.15;;;19.67;;
23432;SDS011;41331;45.412;10.992;2023-01-31T13:36:32;33.47;;;20.05;;
23432;SDS011;41331;45.412;10.992;2023-01-31T13:39:19;34.95;;;21.30;;
23432;SDS011;41331;45.412;10.992;2023-01-31T13:41:50;37.40;;;21.40;;
23432;SDS011;41331;45.412;10.992;2023-01-31T13:44:18;34.08;;;20.65;;
23432;SDS011;41331;45.412;10.992;2023-01-31T13:46:51;38.28;;;19.08;;
23432;SDS011;41331;45.412;10.992;2023-01-31T13:49:33;34.10;;;20.20;;
23432;SDS011;41331;45.412;10.992;2023-01-31T13:52:40;32.53;;;19.10;;
23432;SDS011;41331;45.412;10.992;2023-01-31T13:55:15;38.28;;;19.90;;
23432;SDS011;41331;45.412;10.992;2023-01-31T13:57:57;40.08;;;21.98;;
23432;SDS011;41331;45.412;10.992;2023-01-31T14:00:39;47.63;;;22.48;;
23432;SDS011;41331;45.412;10.992;2023-01-31T14:03:10;43.10;;;22.38;;
23432;SDS011;41331;45.412;10.992;2023-01-31T14:08:35;42.58;;;21.95;;
23432;SDS011;41331;45.412;10.992;2023-01-31T14:13:41;36.53;;;20.48;;
23432;SDS011;41331;45.412;10.992;2023-01-31T14:19:04;38.30;;;20.20;;
23432;SDS011;41331;45.412;10.992;2023-01-31T14:27:20;33.42;;;19.02;;
23432;SDS011;41331;45.412;10.992;2023-01-31T14:29:55;33.08;;;18.92;;
23432;SDS011;41331;45.412;10.992;2023-01-31T14:32:43;39.17;;;19.48;;
23432;SDS011;41331;45.412;10.992;2023-01-31T14:40:44;38.20;;;19.75;;
23432;SDS011;41331;45.412;10.992;2023-01-31T14:43:38;35.15;;;19.25;;
23432;SDS011;41331;45.412;10.992;2023-01-31T14:54:08;42.80;;;20.50;;
23432;SDS011;41331;45.412;10.992;2023-01-31T15:00:00;38.42;;;21.17;;
23432;SDS011;41331;45.412;10.992;2023-01-31T15:05:03;42.92;;;23.92;;
23432;SDS011;41331;45.412;10.992;2023-01-31T15:08:01;38.20;;;21.65;;
23432;SDS011;41331;45.412;10.992;2023-01-31T15:16:22;38.30;;;21.63;;
23432;SDS011;41331;45.412;10.992;2023-01-31T15:18:56;42.30;;;22.13;;
23432;SDS011;41331;45.412;10.992;2023-01-31T15:24:15;44.22;;;21.98;;
23432;SDS011;41331;45.412;10.992;2023-01-31T15:26:47;42.20;;;23.13;;
23432;SDS011;41331;45.412;10.992;2023-01-31T15:29:21;45.20;;;23.80;;
23432;SDS011;41331;45.412;10.992;2023-01-31T15:31:52;44.58;;;23.45;;
23432;SDS011;41331;45.412;10.992;2023-01-31T15:34:26;49.47;;;25.58;;
23432;SDS011;41331;45.412;10.992;2023-01-31T15:37:07;42.53;;;23.70;;
23432;SDS011;41331;45.412;10.992;2023-01-31T15:39:44;48.35;;;24.38;;
23432;SDS011;41331;45.412;10.992;2023-01-31T15:42:29;46.53;;;25.13;;
23432;SDS011;41331;45.412;10.992;2023-01-31T15:45:12;48.10;;;25.10;;
23432;SDS011;41331;45.412;10.992;2023-01-31T15:47:40;49.03;;;25.83;;
23432;SDS011;41331;45.412;10.992;2023-01-31T15:50:17;51.45;;;27.63;;
23432;SDS011;41331;45.412;10.992;2023-01-31T15:52:46;46.25;;;26.98;;
23432;SDS011;41331;45.412;10.992;2023-01-31T15:55:14;53.95;;;28.42;;
23432;SDS011;41331;45.412;10.992;2023-01-31T15:57:46;51.88;;;28.50;;
23432;SDS011;41331;45.412;10.992;2023-01-31T16:02:48;54.33;;;30.35;;
23432;SDS011;41331;45.412;10.992;2023-01-31T16:05:18;62.85;;;32.08;;
23432;SDS011;41331;45.412;10.992;2023-01-31T16:07:48;58.38;;;32.33;;
23432;SDS011;41331;45.412;10.992;2023-01-31T16:10:15;58.03;;;31.77;;
23432;SDS011;41331;45.412;10.992;2023-01-31T16:12:47;60.83;;;33.53;;
23432;SDS011;41331;45.412;10.992;2023-01-31T16:15:18;57.13;;;32.83;;
23432;SDS011;41331;45.412;10.992;2023-01-31T16:17:49;64.65;;;33.63;;
23432;SDS011;41331;45.412;10.992;2023-01-31T16:23:01;63.22;;;34.28;;
23432;SDS011;41331;45.412;10.992;2023-01-31T16:25:31;61.35;;;34.38;;
23432;SDS011;41331;45.412;10.992;2023-01-31T16:28:05;67.30;;;34.20;;
23432;SDS011;41331;45.412;10.992;2023-01-31T16:30:37;66.82;;;35.08;;
23432;SDS011;41331;45.412;10.992;2023-01-31T16:33:13;61.80;;;35.83;;
23432;SDS011;41331;45.412;10.992;2023-01-31T16:35:42;69.88;;;35.53;;
23432;SDS011;41331;45.412;10.992;2023-01-31T16:38:20;65.40;;;35.97;;
23432;SDS011;41331;45.412;10.992;2023-01-31T16:40:53;71.75;;;36.25;;
23432;SDS011;41331;45.412;10.992;2023-01-31T16:43:29;67.57;;;36.58;;
23432;SDS011;41331;45.412;10.992;2023-01-31T16:45:59;64.32;;;35.60;;
23432;SDS011;41331;45.412;10.992;2023-01-31T16:48:33;61.08;;;35.95;;
23432;SDS011;41331;45.412;10.992;2023-01-31T16:56:43;69.53;;;38.53;;
23432;SDS011;41331;45.412;10.992;2023-01-31T17:04:36;67.57;;;38.75;;
23432;SDS011;41331;45.412;10.992;2023-01-31T17:07:06;73.78;;;38.55;;
23432;SDS011;41331;45.412;10.992;2023-01-31T17:09:42;70.75;;;39.40;;
23432;SDS011;41331;45.412;10.992;2023-01-31T17:12:15;69.18;;;39.60;;
23432;SDS011;41331;45.412;10.992;2023-01-31T17:14:45;65.10;;;37.88;;
23432;SDS011;41331;45.412;10.992;2023-01-31T17:17:13;67.75;;;38.38;;
23432;SDS011;41331;45.412;10.992;2023-01-31T17:19:47;74.55;;;39.40;;
23432;SDS011;41331;45.412;10.992;2023-01-31T17:22:15;72.38;;;40.30;;
23432;SDS011;41331;45.412;10.992;2023-01-31T17:24:42;66.72;;;38.47;;
23432;SDS011;41331;45.412;10.992;2023-01-31T17:27:14;68.32;;;38.20;;
23432;SDS011;41331;45.412;10.992;2023-01-31T17:32:14;69.22;;;37.95;;
23432;SDS011;41331;45.412;10.992;2023-01-31T17:34:43;67.50;;;38.42;;